Santa Rosa Beach, Florida
Current Conditions -  °F | °C
As of 6:53 PM on Wednesday 22 Oct 2014 (Local Time) from KDTS Reporting Station
Clear Clear  
Wind Chill: 71°   Ceiling: Unl
Heat Index: 71°   Visibility: 10mi
Dew Point: 49°   Wind: 8mph
Humidity: 45%   Direction: 20°NNE
Pressure: 30.02"   Gusts: NA
Location:  30.4°N, 86.23°W
Report Text: KDTS 222353Z AUTO 02007KT 10SM CLR 22/09 A3002 RMK AO2 SLP165 T02170094 10267 20217 53010 TSNO
Loading
Personal Weather Stations






























Interactive Weather Map
Tropical Storm Tracking
New forecast layout! Learn more

10-Day Weather Forecast

Advertisements
Track Severe Weather on mobile